Time;durP1;ratioP1;P1;durP2;ratioP2;P2;SDS_P1;SDS_P2;PMS_P1;PMS_P2;Temp;Humidity;BMP_temperature;BMP_pressure;BME280_temperature;BME280_humidity;BME280_pressure;Samples;Min_cycle;Max_cycle;Signal;HPM_P1;HPM_P2
2022/08/11 00:02:33;;;;;;;2.50;2.30;;;28.20;49.60;;;;;;5010135;28;20528;-71
2022/08/11 00:05:10;;;;;;;2.43;2.33;;;28.20;49.60;;;;;;5019727;28;20461;-71
2022/08/11 00:07:44;;;;;;;2.03;1.93;;;28.20;49.60;;;;;;5005460;28;20490;-71
2022/08/11 00:10:15;;;;;;;6.27;3.10;;;28.20;49.50;;;;;;5001684;28;20939;-71
2022/08/11 00:12:44;;;;;;;2.40;2.13;;;28.20;49.60;;;;;;5012559;28;20476;-71
2022/08/11 00:15:13;;;;;;;2.30;2.20;;;28.20;49.60;;;;;;5013284;28;20879;-71
2022/08/11 00:17:42;;;;;;;2.90;1.90;;;28.20;49.50;;;;;;5006530;28;20584;-71
2022/08/11 00:20:14;;;;;;;2.30;2.20;;;28.20;49.50;;;;;;5008813;28;20956;-71
2022/08/11 00:22:46;;;;;;;2.40;2.20;;;28.20;49.60;;;;;;5014746;28;20550;-71
2022/08/11 00:25:17;;;;;;;2.50;2.30;;;28.20;49.50;;;;;;5022623;28;20462;-71
2022/08/11 00:27:46;;;;;;;2.10;2.00;;;28.20;49.50;;;;;;5021387;28;20896;-70
2022/08/11 00:30:16;;;;;;;2.60;2.40;;;28.20;49.50;;;;;;5022364;28;20447;-71
2022/08/11 00:32:54;;;;;;;2.80;2.60;;;28.20;49.50;;;;;;5013232;28;20447;-71
2022/08/11 00:35:30;;;;;;;2.27;2.17;;;28.20;49.50;;;;;;5014672;28;20481;-71
2022/08/11 00:38:24;;;;;;;2.27;2.17;;;28.30;49.50;;;;;;5014393;28;20462;-72
2022/08/11 00:41:07;;;;;;;2.80;2.70;;;28.30;49.40;;;;;;5006854;28;20968;-71
2022/08/11 00:43:51;;;;;;;2.80;2.60;;;28.20;49.50;;;;;;5000366;28;20575;-71
2022/08/11 00:46:35;;;;;;;1.90;1.80;;;28.20;49.40;;;;;;5004681;28;20462;-71
2022/08/11 00:49:16;;;;;;;2.23;2.13;;;28.20;49.40;;;;;;5004072;28;20498;-71
2022/08/11 00:52:07;;;;;;;2.83;2.63;;;28.20;49.50;;;;;;5003874;28;20864;-71
2022/08/11 00:55:03;;;;;;;2.60;2.50;;;28.20;49.50;;;;;;5005490;28;20486;-71
2022/08/11 00:58:23;;;;;;;2.37;2.27;;;28.10;49.50;;;;;;4996347;28;20531;-71
2022/08/11 01:01:09;;;;;;;2.00;1.90;;;28.10;49.60;;;;;;4957762;28;20472;-71
2022/08/11 01:04:11;;;;;;;2.20;2.00;;;28.10;49.50;;;;;;5001203;28;20485;-70
2022/08/11 01:07:15;;;;;;;2.40;2.30;;;28.10;49.50;;;;;;5005560;28;20463;-71
2022/08/11 01:10:23;;;;;;;2.30;2.20;;;28.10;49.60;;;;;;5021094;28;20549;-71
2022/08/11 01:13:08;;;;;;;2.30;2.20;;;28.20;49.60;;;;;;5014432;28;20484;-71
2022/08/11 01:16:40;;;;;;;2.77;2.57;;;28.20;49.60;;;;;;5006680;28;20533;-70
2022/08/11 01:19:41;;;;;;;8.20;3.07;;;28.20;49.60;;;;;;4989180;28;20523;-70
2022/08/11 01:23:37;;;;;;;2.43;2.33;;;28.20;49.50;;;;;;5008703;28;20475;-71
2022/08/11 01:27:00;;;;;;;2.40;2.30;;;28.10;49.60;;;;;;5025191;28;21047;-71
2022/08/11 01:30:07;;;;;;;2.50;2.40;;;28.10;49.60;;;;;;5012291;28;20472;-71
2022/08/11 01:33:11;;;;;;;2.50;2.30;;;28.10;49.60;;;;;;5011925;28;20452;-70
2022/08/11 01:36:19;;;;;;;2.60;2.40;;;28.10;49.70;;;;;;5011276;28;20505;-71
2022/08/11 01:39:18;;;;;;;2.63;2.53;;;28.10;49.70;;;;;;5004877;28;20476;-71
2022/08/11 01:45:25;;;;;;;2.80;2.60;;;28.10;49.70;;;;;;5019417;28;20516;-70
2022/08/11 01:48:03;;;;;;;2.87;2.70;;;28.10;49.60;;;;;;4993702;28;20473;-71
2022/08/11 01:50:46;;;;;;;2.87;2.67;;;28.10;49.70;;;;;;5010507;28;20506;-71
2022/08/11 01:53:28;;;;;;;2.93;2.73;;;28.10;49.70;;;;;;5020392;28;20964;-71
2022/08/11 01:56:10;;;;;;;3.13;2.80;;;28.10;49.70;;;;;;5020200;28;20480;-71
2022/08/11 01:58:44;;;;;;;2.73;2.60;;;28.10;49.70;;;;;;5018559;28;20489;-71
2022/08/11 02:01:26;;;;;;;2.30;2.20;;;28.10;49.70;;;;;;5016482;28;20559;-70
2022/08/11 02:03:59;;;;;;;2.60;2.50;;;28.10;49.60;;;;;;5005218;28;20479;-71
2022/08/11 02:06:55;;;;;;;2.60;2.40;;;28.10;49.70;;;;;;5018608;28;20529;-70
2022/08/11 02:09:51;;;;;;;2.57;2.43;;;28.10;49.60;;;;;;5006966;28;20558;-71
2022/08/11 02:12:38;;;;;;;2.97;2.77;;;28.10;49.70;;;;;;4997760;28;20471;-70
2022/08/11 02:15:15;;;;;;;2.40;2.30;;;28.10;49.60;;;;;;5013176;28;20455;-70
2022/08/11 02:18:07;;;;;;;2.60;2.50;;;28.10;49.60;;;;;;5003575;28;20547;-70
2022/08/11 02:23:43;;;;;;;3.10;2.90;;;28.10;49.50;;;;;;5003567;28;20543;-70
2022/08/11 02:26:39;;;;;;;2.77;2.67;;;28.00;49.50;;;;;;5022440;28;20454;-70
2022/08/11 02:29:17;;;;;;;3.47;3.17;;;28.00;49.50;;;;;;5016139;28;20478;-70
2022/08/11 02:35:20;;;;;;;2.77;2.67;;;28.10;49.50;;;;;;5004724;28;20865;-70
2022/08/11 02:37:58;;;;;;;2.77;2.67;;;28.10;49.50;;;;;;5012331;28;20545;-70
2022/08/11 02:40:34;;;;;;;3.27;2.97;;;28.00;49.60;;;;;;5004036;28;20482;-70
2022/08/11 02:43:13;;;;;;;2.53;2.43;;;28.10;49.60;;;;;;5005771;28;20448;-70
2022/08/11 02:45:54;;;;;;;2.97;2.77;;;28.10;49.50;;;;;;5018043;28;20478;-70
2022/08/11 02:51:32;;;;;;;2.87;2.67;;;28.10;49.60;;;;;;5007571;28;20966;-70
2022/08/11 02:54:10;;;;;;;2.53;2.43;;;28.10;49.50;;;;;;5024369;28;20454;-70
2022/08/11 02:56:50;;;;;;;2.77;2.57;;;28.10;49.40;;;;;;5016638;28;20952;-69
2022/08/11 02:59:52;;;;;;;3.03;2.83;;;28.10;49.50;;;;;;5019178;28;20456;-70
2022/08/11 03:02:44;;;;;;;2.73;2.50;;;28.10;49.60;;;;;;5014963;28;20458;-70
2022/08/11 03:05:23;;;;;;;3.70;3.50;;;28.10;49.80;;;;;;5020030;28;20487;-70
2022/08/11 03:08:17;;;;;;;3.27;2.80;;;28.10;49.50;;;;;;5021830;28;20494;-70
2022/08/11 03:16:52;;;;;;;2.73;2.63;;;28.10;49.60;;;;;;5019521;28;20477;-70
2022/08/11 03:19:30;;;;;;;2.80;2.70;;;28.00;49.60;;;;;;5015731;28;20927;-70
2022/08/11 03:22:12;;;;;;;3.10;2.90;;;28.00;49.70;;;;;;5024790;28;20577;-70
2022/08/11 03:24:54;;;;;;;3.00;2.80;;;28.00;49.70;;;;;;5015958;28;20484;-70
2022/08/11 03:27:35;;;;;;;3.20;3.00;;;28.00;49.60;;;;;;5004343;28;20488;-70
2022/08/11 03:30:10;;;;;;;3.23;3.03;;;28.10;49.60;;;;;;5000926;28;20870;-70
2022/08/11 03:34:00;;;;;;;2.80;2.70;;;28.10;49.70;;;;;;5010100;28;21038;-70
2022/08/11 03:35:42;;;;;;;3.20;3.00;;;28.10;49.60;;;;;;5012564;28;20493;-70
2022/08/11 03:38:14;;;;;;;3.77;3.00;;;28.10;49.60;;;;;;5006364;28;20554;-70
2022/08/11 03:44:32;;;;;;;2.73;2.63;;;28.10;49.60;;;;;;5016821;28;20449;-70
2022/08/11 03:47:15;;;;;;;3.57;3.37;;;28.00;49.60;;;;;;5019844;28;20535;-70
2022/08/11 03:50:00;;;;;;;3.33;3.13;;;28.00;49.70;;;;;;4999792;28;20451;-70
2022/08/11 03:52:44;;;;;;;3.23;3.03;;;28.00;49.70;;;;;;5005888;28;20459;-70
2022/08/11 03:55:21;;;;;;;4.60;4.20;;;28.00;49.80;;;;;;5026492;28;20447;-70
2022/08/11 03:58:30;;;;;;;3.30;3.10;;;28.00;49.80;;;;;;5010679;28;20492;-70
2022/08/11 04:01:31;;;;;;;3.43;3.23;;;28.00;49.70;;;;;;5002652;28;20548;-70
2022/08/11 04:04:37;;;;;;;3.10;2.90;;;28.00;49.70;;;;;;5002892;28;20506;-70
2022/08/11 04:07:44;;;;;;;3.20;3.00;;;28.00;49.70;;;;;;5018600;28;20466;-70
2022/08/11 04:10:50;;;;;;;3.07;2.87;;;28.00;49.70;;;;;;4986927;28;20466;-71
2022/08/11 04:13:54;;;;;;;3.20;3.00;;;28.00;49.70;;;;;;5008557;28;20452;-70
2022/08/11 04:16:40;;;;;;;3.60;3.30;;;27.90;49.80;;;;;;5004335;28;20913;-70
2022/08/11 04:20:00;;;;;;;3.00;2.80;;;27.90;49.80;;;;;;5002352;28;20558;-70
2022/08/11 04:23:02;;;;;;;3.10;2.90;;;27.90;49.80;;;;;;5010535;28;20549;-71
2022/08/11 04:25:58;;;;;;;2.80;2.70;;;28.00;49.80;;;;;;5009813;28;20474;-71
2022/08/11 04:28:49;;;;;;;3.33;3.13;;;28.00;49.80;;;;;;5012111;28;20492;-71
2022/08/11 04:31:37;;;;;;;2.83;2.63;;;28.00;49.70;;;;;;5007273;28;20518;-71
2022/08/11 04:35:04;;;;;;;3.40;3.20;;;28.00;49.80;;;;;;5023683;28;20955;-70
2022/08/11 04:38:06;;;;;;;3.33;2.73;;;28.00;49.70;;;;;;5009418;28;20443;-70
2022/08/11 04:40:56;;;;;;;3.10;2.93;;;28.00;49.60;;;;;;5001643;28;20542;-70
2022/08/11 04:44:00;;;;;;;3.00;2.80;;;28.00;49.90;;;;;;4997798;28;20514;-70
2022/08/11 04:47:00;;;;;;;2.83;2.63;;;28.00;49.70;;;;;;5013261;28;20595;-70
2022/08/11 05:02:54;;;;;;;3.20;3.03;;;28.00;49.70;;;;;;5004770;28;20872;-69
2022/08/11 05:05:31;;;;;;;3.30;3.00;;;28.00;49.70;;;;;;4970905;28;20479;-70
2022/08/11 05:08:43;;;;;;;3.30;3.10;;;27.90;49.80;;;;;;5003965;28;20493;-71
2022/08/11 05:11:44;;;;;;;3.40;3.20;;;28.00;49.80;;;;;;4951424;28;20991;-70
2022/08/11 05:34:51;;;;;;;3.27;3.07;;;27.70;49.70;;;;;;5019166;28;20470;-71
2022/08/11 05:37:23;;;;;;;3.70;3.17;;;27.50;50.30;;;;;;5017441;28;20511;-70
2022/08/11 05:56:59;;;;;;;4.13;3.80;;;27.60;50.40;;;;;;5002813;28;20463;-70
2022/08/11 05:59:28;;;;;;;3.70;3.50;;;27.50;50.40;;;;;;5005986;28;22019;-70
2022/08/11 06:02:04;;;;;;;3.87;3.40;;;27.50;50.50;;;;;;5000843;28;20475;-70
2022/08/11 06:04:33;;;;;;;3.27;3.13;;;27.50;50.50;;;;;;5005287;28;20458;-70
2022/08/11 06:07:05;;;;;;;3.47;3.17;;;27.50;50.40;;;;;;5004654;28;20473;-71
2022/08/11 06:09:35;;;;;;;3.90;3.60;;;27.50;50.50;;;;;;5005865;28;20462;-70
2022/08/11 06:12:07;;;;;;;3.60;3.30;;;27.50;50.40;;;;;;5004313;28;20491;-70
2022/08/11 06:14:42;;;;;;;3.40;3.13;;;27.50;50.40;;;;;;5012807;28;20537;-70
2022/08/11 06:17:13;;;;;;;4.23;3.93;;;27.50;50.50;;;;;;5005350;28;20491;-70
2022/08/11 06:19:46;;;;;;;3.33;3.03;;;27.50;50.50;;;;;;5008125;28;20448;-70
2022/08/11 06:22:22;;;;;;;4.00;3.80;;;27.50;50.60;;;;;;5005846;28;20487;-70
2022/08/11 06:24:55;;;;;;;3.73;3.53;;;27.40;50.60;;;;;;5006182;28;20460;-70
2022/08/11 06:27:25;;;;;;;3.73;3.43;;;27.40;50.70;;;;;;5004598;28;20542;-72
2022/08/11 06:29:54;;;;;;;3.73;3.50;;;27.40;50.80;;;;;;5005617;28;20460;-71
2022/08/11 06:32:29;;;;;;;3.50;3.30;;;27.40;50.70;;;;;;5005476;28;20469;-70
2022/08/11 06:35:11;;;;;;;4.00;3.60;;;27.40;50.70;;;;;;5005083;28;21094;-71
2022/08/11 06:37:57;;;;;;;3.93;3.63;;;27.50;50.70;;;;;;5017370;28;20938;-71
2022/08/11 06:40:34;;;;;;;4.50;4.10;;;27.50;50.70;;;;;;5023110;28;20453;-71
2022/08/11 06:43:11;;;;;;;3.60;3.30;;;27.50;50.70;;;;;;5010624;28;20462;-69
2022/08/11 06:45:48;;;;;;;4.30;3.63;;;27.50;50.80;;;;;;5007077;28;20467;-69
2022/08/11 06:48:21;;;;;;;3.70;3.50;;;27.50;50.80;;;;;;5002039;28;20457;-67
2022/08/11 06:53:43;;;;;;;3.30;3.10;;;27.50;50.90;;;;;;5003587;28;21220;-68
2022/08/11 07:02:36;;;;;;;4.60;4.20;;;27.50;51.20;;;;;;5006125;28;20455;-67
2022/08/11 07:05:12;;;;;;;3.67;3.43;;;27.50;51.30;;;;;;5003396;28;20891;-68
2022/08/11 07:17:21;;;;;;;3.60;3.30;;;27.50;51.30;;;;;;5001777;28;21051;-68
2022/08/11 07:31:13;;;;;;;3.63;3.43;;;27.50;51.50;;;;;;5007624;28;20569;-68
2022/08/11 07:33:46;;;;;;;6.30;3.67;;;27.50;51.50;;;;;;4997765;28;20519;-68
2022/08/11 07:36:39;;;;;;;4.07;3.43;;;27.50;51.40;;;;;;5000117;28;20472;-69
2022/08/11 07:39:16;;;;;;;4.67;4.37;;;27.70;51.60;;;;;;5001703;28;20479;-68
2022/08/11 07:41:47;;;;;;;4.47;4.17;;;27.90;51.00;;;;;;5000617;28;20972;-68
2022/08/11 07:44:17;;;;;;;5.33;4.50;;;28.10;50.60;;;;;;5000008;28;20458;-71
2022/08/11 07:52:31;;;;;;;3.77;3.43;;;28.40;50.70;;;;;;5002688;28;20514;-69
2022/08/11 07:55:02;;;;;;;4.77;4.37;;;28.40;50.00;;;;;;5007140;28;20467;-71
2022/08/11 08:17:51;;;;;;;4.93;4.43;;;27.90;51.40;;;;;;4997713;28;20854;-69
2022/08/11 08:20:44;;;;;;;3.87;3.67;;;28.00;51.50;;;;;;5002383;28;20466;-68
2022/08/11 08:23:13;;;;;;;8.17;5.50;;;27.90;51.30;;;;;;4999997;28;20492;-67
2022/08/11 08:25:44;;;;;;;4.13;3.90;;;27.90;51.20;;;;;;5005334;28;20487;-69
2022/08/11 08:28:17;;;;;;;3.90;3.70;;;28.00;51.20;;;;;;4998481;28;20578;-70
2022/08/11 08:30:49;;;;;;;3.90;3.60;;;28.00;51.10;;;;;;4996661;28;20512;-69
2022/08/11 08:33:22;;;;;;;3.53;3.33;;;27.90;51.20;;;;;;5011455;28;20461;-67
2022/08/11 08:36:10;;;;;;;3.87;3.60;;;27.80;51.50;;;;;;5000420;28;20451;-71
2022/08/11 08:38:40;;;;;;;3.90;3.60;;;27.70;51.50;;;;;;4998688;28;20453;-70
2022/08/11 08:41:10;;;;;;;3.40;3.20;;;27.70;51.40;;;;;;5002633;28;20514;-72
2022/08/11 08:43:48;;;;;;;3.40;3.20;;;27.60;51.50;;;;;;4998824;28;20820;-73
2022/08/11 08:46:22;;;;;;;4.77;4.17;;;27.60;51.50;;;;;;5005672;28;20526;-72
2022/08/11 08:48:50;;;;;;;4.03;3.67;;;27.60;51.60;;;;;;5008463;28;20471;-76
2022/08/11 08:51:35;;;;;;;4.90;4.07;;;27.50;51.80;;;;;;5003637;28;20464;-68
2022/08/11 08:54:28;;;;;;;6.90;3.87;;;27.80;51.60;;;;;;5004077;28;20463;-70
2022/08/11 08:56:58;;;;;;;4.10;3.80;;;28.10;51.10;;;;;;5006903;28;20500;-69
2022/08/11 08:59:28;;;;;;;5.60;4.17;;;28.30;50.80;;;;;;5007051;28;20494;-68
2022/08/11 09:02:18;;;;;;;3.77;3.47;;;28.40;50.60;;;;;;4999963;28;20454;-68
2022/08/11 09:05:02;;;;;;;3.90;3.67;;;28.60;50.30;;;;;;5001523;28;20511;-67
2022/08/11 09:07:32;;;;;;;3.83;3.53;;;28.60;49.80;;;;;;5006060;28;20505;-69
2022/08/11 09:10:08;;;;;;;4.30;4.00;;;28.70;50.00;;;;;;5005798;28;20453;-69
2022/08/11 09:12:40;;;;;;;6.10;3.77;;;28.70;49.70;;;;;;5000235;28;20465;-68
2022/08/11 09:15:12;;;;;;;3.57;3.37;;;28.70;49.60;;;;;;4999154;28;20449;-70
2022/08/11 09:17:45;;;;;;;3.40;3.10;;;28.70;50.20;;;;;;5002473;28;20575;-71
2022/08/11 09:20:17;;;;;;;3.70;3.37;;;28.70;50.20;;;;;;4999135;28;21131;-69
2022/08/11 09:28:43;;;;;;;4.07;3.67;;;28.80;50.00;;;;;;5000834;28;20519;-69
2022/08/11 09:31:15;;;;;;;3.70;3.50;;;28.80;49.80;;;;;;5001982;28;20486;-68
2022/08/11 09:33:45;;;;;;;3.50;3.30;;;28.80;49.10;;;;;;5005194;28;20509;-69
2022/08/11 09:41:47;;;;;;;3.73;3.53;;;28.90;49.30;;;;;;5005766;28;20459;-70
2022/08/11 09:44:47;;;;;;;3.87;3.57;;;28.90;49.50;;;;;;5012300;28;20493;-69
2022/08/11 09:47:23;;;;;;;3.20;3.00;;;29.00;50.20;;;;;;5006127;28;20844;-71
2022/08/11 09:49:58;;;;;;;3.50;3.20;;;29.00;49.60;;;;;;5000813;28;20457;-68
2022/08/11 09:52:28;;;;;;;3.40;3.20;;;29.00;49.90;;;;;;5005267;28;20442;-69
2022/08/11 09:54:57;;;;;;;3.93;3.53;;;29.00;49.80;;;;;;5001238;28;20507;-71
2022/08/11 10:00:13;;;;;;;5.87;3.60;;;29.10;49.60;;;;;;5011252;28;20501;-69
2022/08/11 10:02:49;;;;;;;3.27;3.00;;;29.10;49.70;;;;;;5007355;28;20569;-69
2022/08/11 10:08:12;;;;;;;3.70;3.50;;;29.10;49.70;;;;;;5001204;28;21045;-68
2022/08/11 10:10:41;;;;;;;3.57;3.37;;;29.10;50.10;;;;;;5004717;28;20484;-69
2022/08/11 10:13:15;;;;;;;3.97;3.57;;;29.10;49.60;;;;;;4998897;28;20532;-68
2022/08/11 10:16:08;;;;;;;4.17;3.90;;;29.10;49.10;;;;;;5007593;28;21174;-69
2022/08/11 10:18:51;;;;;;;3.50;3.20;;;29.20;49.70;;;;;;5004869;28;20466;-69
2022/08/11 10:21:28;;;;;;;3.20;3.00;;;29.20;49.60;;;;;;4999727;28;20456;-71
2022/08/11 10:26:57;;;;;;;4.17;3.77;;;29.20;48.90;;;;;;5006976;28;20471;-70
2022/08/11 10:35:28;;;;;;;3.80;3.57;;;29.20;48.60;;;;;;5004215;28;20456;-69
2022/08/11 10:37:57;;;;;;;4.20;3.83;;;29.20;49.10;;;;;;5014371;28;20464;-70
2022/08/11 10:40:38;;;;;;;3.63;3.43;;;29.20;49.10;;;;;;5000024;28;20616;-69
2022/08/11 10:43:09;;;;;;;3.10;2.90;;;29.30;49.40;;;;;;5005205;28;20548;-68
2022/08/11 10:48:29;;;;;;;3.40;3.20;;;28.80;49.40;;;;;;5008503;28;20824;-68
2022/08/11 10:51:14;;;;;;;3.03;2.83;;;28.60;49.60;;;;;;5014113;28;20467;-68
2022/08/11 10:59:34;;;;;;;23.90;10.47;;;28.10;50.60;;;;;;5013152;28;20476;-67
2022/08/11 11:02:03;;;;;;;17.73;10.20;;;28.00;50.90;;;;;;5012529;28;20922;-68
2022/08/11 11:04:44;;;;;;;84.03;32.47;;;28.00;51.10;;;;;;5021490;28;20883;-68
2022/08/11 11:07:22;;;;;;;47.47;24.20;;;28.00;51.70;;;;;;4999872;28;20455;-68
2022/08/11 11:09:54;;;;;;;55.37;26.23;;;28.00;51.90;;;;;;5002134;28;20449;-68
2022/08/11 11:18:08;;;;;;;32.53;16.00;;;27.90;52.20;;;;;;5005067;28;20892;-70
2022/08/11 11:20:40;;;;;;;23.50;13.73;;;28.00;52.20;;;;;;4996102;28;20493;-67
2022/08/11 11:23:18;;;;;;;12.17;6.10;;;28.00;52.10;;;;;;4998926;28;20458;-68
2022/08/11 11:26:18;;;;;;;23.77;11.10;;;28.00;51.80;;;;;;5005679;28;20531;-69
2022/08/11 11:29:24;;;;;;;21.07;9.63;;;28.10;52.00;;;;;;5003109;28;20513;-68
2022/08/11 11:32:09;;;;;;;15.40;10.23;;;28.00;51.90;;;;;;4999531;28;20468;-70
2022/08/11 11:34:51;;;;;;;13.23;8.20;;;28.00;51.80;;;;;;4998974;28;20454;-69
2022/08/11 11:37:23;;;;;;;14.87;8.63;;;28.00;51.80;;;;;;4997726;28;20465;-70
2022/08/11 11:39:56;;;;;;;13.93;8.60;;;28.00;51.60;;;;;;5000190;28;20532;-68
2022/08/11 11:42:25;;;;;;;7.83;6.13;;;28.10;51.70;;;;;;5000690;28;20490;-68
2022/08/11 11:44:53;;;;;;;13.30;7.80;;;28.10;51.60;;;;;;4995530;28;20546;-70
2022/08/11 11:47:25;;;;;;;10.70;6.90;;;28.20;51.30;;;;;;5001238;28;20481;-68
2022/08/11 11:49:54;;;;;;;7.90;6.37;;;28.40;51.00;;;;;;5019210;28;20581;-70
2022/08/11 11:52:23;;;;;;;10.77;7.27;;;28.50;50.70;;;;;;5001603;28;20851;-71
2022/08/11 11:54:56;;;;;;;8.63;7.13;;;28.60;50.60;;;;;;4994327;28;20518;-69
2022/08/11 12:03:17;;;;;;;7.03;6.20;;;28.90;50.60;;;;;;4999874;28;20511;-70
2022/08/11 12:05:46;;;;;;;9.77;6.57;;;29.00;50.60;;;;;;5004924;28;20480;-70
2022/08/11 12:08:15;;;;;;;11.53;6.37;;;29.10;50.50;;;;;;4999105;28;20504;-69
2022/08/11 12:10:47;;;;;;;12.00;7.40;;;29.10;50.40;;;;;;5002257;28;20879;-71
2022/08/11 12:16:08;;;;;;;10.13;5.67;;;29.10;50.70;;;;;;5001866;28;20445;-69
2022/08/11 12:18:59;;;;;;;10.27;5.63;;;29.20;50.90;;;;;;5003778;28;20793;-69
2022/08/11 12:21:29;;;;;;;6.33;5.07;;;29.30;51.00;;;;;;4999216;28;21034;-73
2022/08/11 12:29:46;;;;;;;8.03;5.97;;;29.50;50.50;;;;;;4996954;28;20471;-72
2022/08/11 12:32:25;;;;;;;7.10;5.80;;;29.50;50.50;;;;;;5000005;28;20462;-71
2022/08/11 12:34:55;;;;;;;4.83;4.10;;;29.60;50.40;;;;;;5009196;28;20531;-71
2022/08/11 12:37:29;;;;;;;9.70;5.80;;;29.70;50.10;;;;;;5003090;28;20447;-72
2022/08/11 12:46:08;;;;;;;4.40;4.10;;;29.90;49.60;;;;;;5015659;28;20466;-72
2022/08/11 12:54:50;;;;;;;5.33;4.70;;;30.10;49.20;;;;;;5004829;28;20455;-71
2022/08/11 13:05:56;;;;;;;4.60;4.20;;;30.30;49.30;;;;;;5004844;28;20518;-74
2022/08/11 13:08:26;;;;;;;5.47;4.93;;;30.30;49.20;;;;;;5008898;28;20460;-74
2022/08/11 13:13:45;;;;;;;6.27;3.03;;;29.90;48.40;;;;;;5011083;28;20909;-72
2022/08/11 13:16:29;;;;;;;4.40;4.10;;;29.70;48.60;;;;;;5006779;28;20479;-73
2022/08/11 13:18:59;;;;;;;4.00;3.70;;;29.70;48.90;;;;;;5006603;28;20478;-73
2022/08/11 13:21:28;;;;;;;4.40;3.60;;;29.80;48.80;;;;;;5006824;28;20998;-73
2022/08/11 13:23:58;;;;;;;2.97;2.77;;;29.80;48.60;;;;;;4997036;28;20965;-73
2022/08/11 13:26:34;;;;;;;3.27;2.77;;;29.80;47.20;;;;;;5004061;28;20453;-73
2022/08/11 13:29:21;;;;;;;4.00;2.90;;;29.80;47.50;;;;;;5007716;28;20547;-72
2022/08/11 13:31:53;;;;;;;2.47;2.27;;;29.80;47.70;;;;;;5005934;28;20477;-73
2022/08/11 13:34:24;;;;;;;3.40;3.20;;;29.80;47.40;;;;;;4997445;28;20527;-73
2022/08/11 13:36:54;;;;;;;6.37;3.07;;;29.90;47.80;;;;;;5014223;28;20450;-73
2022/08/11 13:39:25;;;;;;;3.00;2.80;;;29.90;47.00;;;;;;5000210;28;20460;-73
2022/08/11 13:41:55;;;;;;;4.60;4.10;;;29.90;47.30;;;;;;5005585;28;20460;-76
2022/08/11 13:44:27;;;;;;;3.83;3.60;;;29.90;48.30;;;;;;4999825;28;20465;-71
2022/08/11 13:46:59;;;;;;;5.80;3.93;;;29.80;48.20;;;;;;5005480;28;20546;-71
2022/08/11 13:49:30;;;;;;;5.67;3.67;;;29.90;49.40;;;;;;5006246;28;20535;-71
2022/08/11 13:51:59;;;;;;;3.77;3.47;;;30.00;49.80;;;;;;5010510;28;20550;-71
2022/08/11 13:54:30;;;;;;;4.00;3.33;;;30.10;49.70;;;;;;5004125;28;21233;-71
2022/08/11 13:57:03;;;;;;;3.43;3.13;;;30.20;49.80;;;;;;5011298;28;20453;-71
2022/08/11 13:59:41;;;;;;;8.20;4.20;;;30.30;49.80;;;;;;5012734;28;21709;-70
2022/08/11 14:02:27;;;;;;;4.57;3.80;;;30.30;49.80;;;;;;5006179;28;20461;-70
2022/08/11 14:05:01;;;;;;;4.33;3.93;;;30.40;50.00;;;;;;5002590;28;20534;-70
2022/08/11 14:07:36;;;;;;;5.77;4.10;;;30.40;49.80;;;;;;5007202;28;20876;-71
2022/08/11 14:10:07;;;;;;;5.07;3.70;;;30.50;50.10;;;;;;5003036;28;20492;-70
2022/08/11 14:15:31;;;;;;;4.33;3.93;;;30.50;49.80;;;;;;5000740;28;20978;-70
2022/08/11 14:18:04;;;;;;;4.73;4.33;;;30.60;50.10;;;;;;5021065;28;20506;-70
2022/08/11 14:23:17;;;;;;;6.77;3.80;;;30.60;50.30;;;;;;5005564;28;20483;-69
2022/08/11 14:28:36;;;;;;;6.87;4.60;;;30.60;50.50;;;;;;5008240;28;20469;-70
2022/08/11 14:31:14;;;;;;;5.70;3.60;;;30.70;50.30;;;;;;5009485;28;20492;-71
2022/08/11 14:33:45;;;;;;;4.10;3.70;;;30.70;50.30;;;;;;5010622;28;20553;-70
2022/08/11 14:36:32;;;;;;;4.00;3.70;;;30.70;49.90;;;;;;5012779;28;20553;-71
2022/08/11 14:39:04;;;;;;;3.77;3.33;;;30.70;50.10;;;;;;5005564;28;20491;-71
2022/08/11 14:47:29;;;;;;;4.97;3.30;;;30.70;49.80;;;;;;5006223;28;20468;-70
2022/08/11 14:50:01;;;;;;;3.27;2.97;;;30.70;49.70;;;;;;5008929;28;20546;-70
2022/08/11 14:52:44;;;;;;;3.43;3.00;;;30.70;49.50;;;;;;5002686;28;20961;-70
2022/08/11 14:58:00;;;;;;;6.20;3.23;;;30.80;49.20;;;;;;5003490;28;20546;-72
2022/08/11 15:00:30;;;;;;;3.10;2.90;;;30.80;49.40;;;;;;5006442;28;20507;-71
2022/08/11 15:03:11;;;;;;;4.10;3.40;;;30.90;49.20;;;;;;4998419;28;20564;-71
2022/08/11 15:05:51;;;;;;;4.97;2.87;;;30.90;49.40;;;;;;5006005;28;20856;-70
2022/08/11 15:14:06;;;;;;;5.50;3.17;;;30.70;47.20;;;;;;5002903;28;20487;-72
2022/08/11 15:19:22;;;;;;;7.30;3.20;;;30.20;46.50;;;;;;5000512;28;20859;-68
2022/08/11 15:24:38;;;;;;;4.03;3.20;;;30.00;47.10;;;;;;5012637;28;20452;-69
2022/08/11 15:38:47;;;;;;;3.37;2.70;;;29.70;46.80;;;;;;5007193;28;20457;-68
2022/08/11 15:47:34;;;;;;;2.67;2.50;;;29.70;46.60;;;;;;5023815;28;20450;-70
2022/08/11 15:50:06;;;;;;;4.70;2.50;;;29.70;46.30;;;;;;5018020;28;20501;-68
2022/08/11 15:52:48;;;;;;;3.20;2.90;;;29.60;46.10;;;;;;5013964;28;20468;-71
2022/08/11 15:55:19;;;;;;;2.80;2.60;;;29.60;46.60;;;;;;4993290;28;20464;-70
2022/08/11 16:06:40;;;;;;;2.67;2.47;;;29.50;46.00;;;;;;5005547;28;20451;-70
2022/08/11 16:09:23;;;;;;;2.97;2.80;;;29.50;46.10;;;;;;4998852;28;20456;-70
2022/08/11 16:11:56;;;;;;;2.80;2.60;;;29.50;45.80;;;;;;4997240;28;20459;-71
2022/08/11 16:17:14;;;;;;;2.60;2.40;;;29.50;45.90;;;;;;5007501;28;20505;-69
2022/08/11 16:19:44;;;;;;;2.97;2.67;;;29.50;45.70;;;;;;4996490;28;20483;-71
2022/08/11 16:22:16;;;;;;;2.80;2.70;;;29.50;45.90;;;;;;5004491;28;20499;-70
2022/08/11 16:24:46;;;;;;;3.37;3.07;;;29.50;45.70;;;;;;5006676;28;20456;-71
2022/08/11 16:27:40;;;;;;;2.93;2.57;;;29.50;45.60;;;;;;5010581;28;20455;-70
2022/08/11 16:30:10;;;;;;;2.63;2.50;;;29.50;45.70;;;;;;5005684;28;20983;-70
2022/08/11 16:32:41;;;;;;;2.60;2.40;;;29.40;45.70;;;;;;5003968;28;20957;-71
2022/08/11 16:40:49;;;;;;;2.80;2.70;;;29.50;46.10;;;;;;5005420;28;20460;-71
2022/08/11 16:49:01;;;;;;;2.30;2.20;;;29.40;44.80;;;;;;5007579;28;20466;-70
2022/08/11 16:51:31;;;;;;;2.50;2.37;;;29.40;45.30;;;;;;5010283;28;20834;-70
2022/08/11 16:54:00;;;;;;;2.70;2.50;;;29.40;45.40;;;;;;5013670;28;20475;-71
2022/08/11 16:56:37;;;;;;;3.00;2.83;;;29.40;45.10;;;;;;5021124;28;20450;-70
2022/08/11 16:59:15;;;;;;;2.70;2.50;;;29.40;45.10;;;;;;5024083;28;20543;-71
2022/08/11 17:01:53;;;;;;;2.63;2.30;;;29.40;44.40;;;;;;5022063;28;20557;-70
2022/08/11 17:13:28;;;;;;;2.47;2.27;;;29.30;44.80;;;;;;5014308;28;20469;-70
2022/08/11 17:16:07;;;;;;;2.10;2.00;;;29.30;44.50;;;;;;5014458;28;20496;-71
2022/08/11 17:18:49;;;;;;;2.50;2.30;;;29.30;44.50;;;;;;5019143;28;20449;-70
2022/08/11 17:21:21;;;;;;;2.67;2.57;;;29.30;44.40;;;;;;5024588;28;20478;-71
2022/08/11 17:23:53;;;;;;;2.33;2.23;;;29.30;44.50;;;;;;5014348;28;20458;-70
2022/08/11 17:26:53;;;;;;;2.23;2.13;;;29.30;44.50;;;;;;5031902;28;20489;-70
2022/08/11 17:29:23;;;;;;;2.70;1.83;;;29.30;44.40;;;;;;5026964;28;20460;-71
2022/08/11 17:37:29;;;;;;;2.37;2.27;;;29.30;44.40;;;;;;5020024;28;20488;-70
2022/08/11 17:40:00;;;;;;;3.03;2.70;;;29.30;44.50;;;;;;5028691;28;20581;-70
2022/08/11 17:48:26;;;;;;;2.37;2.20;;;29.20;44.70;;;;;;5016151;28;20558;-70
2022/08/11 17:50:57;;;;;;;2.20;2.10;;;29.20;44.60;;;;;;5026365;28;20581;-71
2022/08/11 18:05:05;;;;;;;1.80;1.70;;;29.10;45.20;;;;;;5000312;28;20494;-70
